sensor_id;sensor_type;location;lat;lon;timestamp;pressure;altitude;pressure_sealevel;temperature;humidity
70250;BME280;57644;48.416;-123.374;2023-03-04T00:00:07;100870.14;;;-1.99;99.96
70250;BME280;57644;48.416;-123.374;2023-03-04T00:02:36;100864.61;;;-1.87;99.69
70250;BME280;57644;48.416;-123.374;2023-03-04T00:05:07;100856.05;;;-1.70;100.00
70250;BME280;57644;48.416;-123.374;2023-03-04T00:07:37;100850.77;;;-1.96;100.00
70250;BME280;57644;48.416;-123.374;2023-03-04T00:10:09;100846.08;;;-1.82;100.00
70250;BME280;57644;48.416;-123.374;2023-03-04T00:12:38;100839.67;;;-1.61;100.00
70250;BME280;57644;48.416;-123.374;2023-03-04T00:15:09;100832.34;;;-1.65;100.00
70250;BME280;57644;48.416;-123.374;2023-03-04T00:17:39;100830.79;;;-1.48;99.90
70250;BME280;57644;48.416;-123.374;2023-03-04T00:20:11;100824.79;;;-1.29;99.14
70250;BME280;57644;48.416;-123.374;2023-03-04T00:22:40;100818.85;;;-1.37;99.03
70250;BME280;57644;48.416;-123.374;2023-03-04T00:25:11;100814.59;;;-1.41;98.58
70250;BME280;57644;48.416;-123.374;2023-03-04T00:27:41;100809.14;;;-1.20;98.56
70250;BME280;57644;48.416;-123.374;2023-03-04T00:30:12;100806.21;;;-1.76;100.00
70250;BME280;57644;48.416;-123.374;2023-03-04T00:32:42;100804.78;;;-1.69;100.00
70250;BME280;57644;48.416;-123.374;2023-03-04T00:35:13;100800.75;;;-1.64;100.00
70250;BME280;57644;48.416;-123.374;2023-03-04T00:37:43;100797.45;;;-2.02;100.00
70250;BME280;57644;48.416;-123.374;2023-03-04T00:40:14;100791.27;;;-1.84;100.00
70250;BME280;57644;48.416;-123.374;2023-03-04T00:42:44;100785.00;;;-1.85;100.00
70250;BME280;57644;48.416;-123.374;2023-03-04T00:45:15;100783.63;;;-2.04;100.00
70250;BME280;57644;48.416;-123.374;2023-03-04T00:47:45;100790.90;;;-3.26;100.00
70250;BME280;57644;48.416;-123.374;2023-03-04T00:50:16;100775.13;;;-3.06;100.00
70250;BME280;57644;48.416;-123.374;2023-03-04T00:52:47;100766.95;;;-3.26;100.00
70250;BME280;57644;48.416;-123.374;2023-03-04T00:55:17;100763.55;;;-3.39;100.00
70250;BME280;57644;48.416;-123.374;2023-03-04T00:57:48;100763.44;;;-2.97;100.00
70250;BME280;57644;48.416;-123.374;2023-03-04T01:00:19;100752.97;;;-3.14;100.00
70250;BME280;57644;48.416;-123.374;2023-03-04T01:02:49;100753.37;;;-3.01;100.00
70250;BME280;57644;48.416;-123.374;2023-03-04T01:05:20;100746.35;;;-2.91;100.00
70250;BME280;57644;48.416;-123.374;2023-03-04T01:07:50;100746.26;;;-2.97;100.00
70250;BME280;57644;48.416;-123.374;2023-03-04T01:10:21;100744.40;;;-2.91;100.00
70250;BME280;57644;48.416;-123.374;2023-03-04T01:12:51;100746.95;;;-2.78;100.00
70250;BME280;57644;48.416;-123.374;2023-03-04T01:15:22;100741.53;;;-2.58;100.00
70250;BME280;57644;48.416;-123.374;2023-03-04T01:17:53;100738.29;;;-2.42;100.00
70250;BME280;57644;48.416;-123.374;2023-03-04T01:20:24;100733.12;;;-2.43;100.00
70250;BME280;57644;48.416;-123.374;2023-03-04T01:22:53;100727.08;;;-2.32;100.00
70250;BME280;57644;48.416;-123.374;2023-03-04T01:25:25;100722.72;;;-2.50;100.00
70250;BME280;57644;48.416;-123.374;2023-03-04T01:27:55;100717.31;;;-2.60;100.00
70250;BME280;57644;48.416;-123.374;2023-03-04T01:30:25;100714.59;;;-2.85;100.00
70250;BME280;57644;48.416;-123.374;2023-03-04T01:32:56;100713.12;;;-2.70;100.00
70250;BME280;57644;48.416;-123.374;2023-03-04T01:35:27;100708.77;;;-2.50;100.00
70250;BME280;57644;48.416;-123.374;2023-03-04T01:37:57;100705.45;;;-2.50;100.00
70250;BME280;57644;48.416;-123.374;2023-03-04T01:40:27;100702.14;;;-2.46;100.00
70250;BME280;57644;48.416;-123.374;2023-03-04T01:42:58;100699.07;;;-2.90;100.00
70250;BME280;57644;48.416;-123.374;2023-03-04T01:45:29;100697.45;;;-3.09;100.00
70250;BME280;57644;48.416;-123.374;2023-03-04T01:47:59;100701.13;;;-3.50;100.00
70250;BME280;57644;48.416;-123.374;2023-03-04T01:50:32;100695.19;;;-3.23;100.00
70250;BME280;57644;48.416;-123.374;2023-03-04T01:53:01;100692.17;;;-3.32;100.00
70250;BME280;57644;48.416;-123.374;2023-03-04T01:55:31;100682.13;;;-2.96;100.00
70250;BME280;57644;48.416;-123.374;2023-03-04T01:58:04;100678.21;;;-2.71;100.00
70250;BME280;57644;48.416;-123.374;2023-03-04T02:00:33;100672.96;;;-3.17;100.00
70250;BME280;57644;48.416;-123.374;2023-03-04T02:03:05;100667.32;;;-2.73;100.00
70250;BME280;57644;48.416;-123.374;2023-03-04T02:05:34;100660.57;;;-2.71;100.00
70250;BME280;57644;48.416;-123.374;2023-03-04T02:08:05;100653.42;;;-2.46;100.00
70250;BME280;57644;48.416;-123.374;2023-03-04T02:10:34;100652.79;;;-2.25;100.00
70250;BME280;57644;48.416;-123.374;2023-03-04T02:13:05;100650.43;;;-2.13;100.00
70250;BME280;57644;48.416;-123.374;2023-03-04T02:15:35;100651.18;;;-2.07;100.00
70250;BME280;57644;48.416;-123.374;2023-03-04T02:18:14;100647.78;;;-2.32;100.00
70250;BME280;57644;48.416;-123.374;2023-03-04T02:20:44;100642.83;;;-2.09;100.00
70250;BME280;57644;48.416;-123.374;2023-03-04T02:23:14;100634.33;;;-2.01;100.00
70250;BME280;57644;48.416;-123.374;2023-03-04T02:25:44;100627.92;;;-2.02;100.00
70250;BME280;57644;48.416;-123.374;2023-03-04T02:28:08;100624.40;;;-2.49;100.00
70250;BME280;57644;48.416;-123.374;2023-03-04T02:30:39;100618.33;;;-2.67;100.00
70250;BME280;57644;48.416;-123.374;2023-03-04T02:33:15;100614.96;;;-2.75;100.00
70250;BME280;57644;48.416;-123.374;2023-03-04T02:35:40;100610.78;;;-2.85;100.00
70250;BME280;57644;48.416;-123.374;2023-03-04T02:38:11;100610.90;;;-2.82;100.00
70250;BME280;57644;48.416;-123.374;2023-03-04T02:40:44;100611.70;;;-3.52;100.00
70250;BME280;57644;48.416;-123.374;2023-03-04T02:43:12;100609.35;;;-3.54;100.00
70250;BME280;57644;48.416;-123.374;2023-03-04T02:45:44;100600.70;;;-3.74;100.00
70250;BME280;57644;48.416;-123.374;2023-03-04T02:48:13;100594.63;;;-3.53;100.00
70250;BME280;57644;48.416;-123.374;2023-03-04T02:50:46;100592.97;;;-3.73;100.00
70250;BME280;57644;48.416;-123.374;2023-03-04T02:53:14;100592.01;;;-3.88;100.00
70250;BME280;57644;48.416;-123.374;2023-03-04T02:55:44;100593.08;;;-3.53;100.00
70250;BME280;57644;48.416;-123.374;2023-03-04T02:58:15;100590.08;;;-3.27;100.00
70250;BME280;57644;48.416;-123.374;2023-03-04T03:00:46;100583.96;;;-3.03;100.00
70250;BME280;57644;48.416;-123.374;2023-03-04T03:03:15;100578.48;;;-3.30;100.00
70250;BME280;57644;48.416;-123.374;2023-03-04T03:05:46;100573.57;;;-3.23;100.00
70250;BME280;57644;48.416;-123.374;2023-03-04T03:08:17;100569.30;;;-3.54;100.00
70250;BME280;57644;48.416;-123.374;2023-03-04T03:10:47;100565.59;;;-3.62;100.00
70250;BME280;57644;48.416;-123.374;2023-03-04T03:13:18;100561.29;;;-3.52;100.00
70250;BME280;57644;48.416;-123.374;2023-03-04T03:15:48;100555.05;;;-3.53;100.00
70250;BME280;57644;48.416;-123.374;2023-03-04T03:18:20;100549.15;;;-3.25;100.00
70250;BME280;57644;48.416;-123.374;2023-03-04T03:20:50;100545.43;;;-3.17;100.00
70250;BME280;57644;48.416;-123.374;2023-03-04T03:23:20;100543.55;;;-3.51;100.00
70250;BME280;57644;48.416;-123.374;2023-03-04T03:25:51;100536.96;;;-3.42;100.00
70250;BME280;57644;48.416;-123.374;2023-03-04T03:28:21;100532.55;;;-3.75;100.00
70250;BME280;57644;48.416;-123.374;2023-03-04T03:30:52;100529.92;;;-3.63;100.00
70250;BME280;57644;48.416;-123.374;2023-03-04T03:33:23;100524.90;;;-3.66;100.00
70250;BME280;57644;48.416;-123.374;2023-03-04T03:35:53;100522.21;;;-3.32;100.00
70250;BME280;57644;48.416;-123.374;2023-03-04T03:38:24;100518.55;;;-3.53;100.00
70250;BME280;57644;48.416;-123.374;2023-03-04T03:40:54;100518.17;;;-3.38;100.00
70250;BME280;57644;48.416;-123.374;2023-03-04T03:43:25;100516.22;;;-3.18;100.00
70250;BME280;57644;48.416;-123.374;2023-03-04T03:45:55;100518.27;;;-3.03;100.00
70250;BME280;57644;48.416;-123.374;2023-03-04T03:48:26;100515.06;;;-3.27;100.00
70250;BME280;57644;48.416;-123.374;2023-03-04T03:50:56;100512.19;;;-2.94;100.00
70250;BME280;57644;48.416;-123.374;2023-03-04T03:53:27;100506.52;;;-2.78;100.00
70250;BME280;57644;48.416;-123.374;2023-03-04T03:55:58;100505.32;;;-2.92;100.00
70250;BME280;57644;48.416;-123.374;2023-03-04T03:58:28;100506.45;;;-3.00;100.00
70250;BME280;57644;48.416;-123.374;2023-03-04T04:00:59;100505.33;;;-3.30;100.00
70250;BME280;57644;48.416;-123.374;2023-03-04T04:03:30;100502.92;;;-3.33;100.00
70250;BME280;57644;48.416;-123.374;2023-03-04T04:06:00;100500.58;;;-3.59;100.00
70250;BME280;57644;48.416;-123.374;2023-03-04T04:08:31;100495.92;;;-3.53;100.00
70250;BME280;57644;48.416;-123.374;2023-03-04T04:11:01;100498.99;;;-3.52;100.00
70250;BME280;57644;48.416;-123.374;2023-03-04T04:13:32;100499.08;;;-3.45;100.00
70250;BME280;57644;48.416;-123.374;2023-03-04T04:16:02;100500.78;;;-3.54;100.00
70250;BME280;57644;48.416;-123.374;2023-03-04T04:18:33;100500.69;;;-3.54;100.00
70250;BME280;57644;48.416;-123.374;2023-03-04T04:21:04;100501.07;;;-3.82;100.00
70250;BME280;57644;48.416;-123.374;2023-03-04T04:23:34;100488.93;;;-4.06;100.00
70250;BME280;57644;48.416;-123.374;2023-03-04T04:26:05;100491.13;;;-3.97;100.00
70250;BME280;57644;48.416;-123.374;2023-03-04T04:28:35;100491.43;;;-3.90;100.00
70250;BME280;57644;48.416;-123.374;2023-03-04T04:31:07;100486.44;;;-4.29;100.00
70250;BME280;57644;48.416;-123.374;2023-03-04T04:33:36;100487.26;;;-4.26;100.00
70250;BME280;57644;48.416;-123.374;2023-03-04T04:36:11;100485.69;;;-4.47;100.00
70250;BME280;57644;48.416;-123.374;2023-03-04T04:38:37;100495.40;;;-5.20;100.00
70250;BME280;57644;48.416;-123.374;2023-03-04T04:41:17;100494.93;;;-5.13;100.00
70250;BME280;57644;48.416;-123.374;2023-03-04T04:43:38;100491.40;;;-5.30;100.00
70250;BME280;57644;48.416;-123.374;2023-03-04T04:46:09;100488.16;;;-5.02;100.00
70250;BME280;57644;48.416;-123.374;2023-03-04T04:48:40;100482.05;;;-4.77;100.00
70250;BME280;57644;48.416;-123.374;2023-03-04T04:51:11;100479.14;;;-4.56;100.00
70250;BME280;57644;48.416;-123.374;2023-03-04T04:53:41;100476.38;;;-5.29;100.00
70250;BME280;57644;48.416;-123.374;2023-03-04T04:56:14;100465.89;;;-4.80;100.00
70250;BME280;57644;48.416;-123.374;2023-03-04T04:58:43;100460.12;;;-4.73;100.00
70250;BME280;57644;48.416;-123.374;2023-03-04T05:01:13;100465.47;;;-4.94;100.00
70250;BME280;57644;48.416;-123.374;2023-03-04T05:03:43;100459.48;;;-4.82;100.00
70250;BME280;57644;48.416;-123.374;2023-03-04T05:06:14;100463.80;;;-5.02;100.00
70250;BME280;57644;48.416;-123.374;2023-03-04T05:08:45;100461.84;;;-4.92;100.00
70250;BME280;57644;48.416;-123.374;2023-03-04T05:11:16;100458.55;;;-4.71;100.00
70250;BME280;57644;48.416;-123.374;2023-03-04T05:13:47;100451.30;;;-4.57;100.00
70250;BME280;57644;48.416;-123.374;2023-03-04T05:16:17;100450.68;;;-4.54;100.00
70250;BME280;57644;48.416;-123.374;2023-03-04T05:18:47;100439.18;;;-4.70;100.00
70250;BME280;57644;48.416;-123.374;2023-03-04T05:21:18;100437.98;;;-4.59;100.00
70250;BME280;57644;48.416;-123.374;2023-03-04T05:23:49;100430.54;;;-4.72;100.00
70250;BME280;57644;48.416;-123.374;2023-03-04T05:26:19;100423.82;;;-4.80;100.00
70250;BME280;57644;48.416;-123.374;2023-03-04T05:28:49;100423.21;;;-4.65;100.00
70250;BME280;57644;48.416;-123.374;2023-03-04T05:31:20;100419.29;;;-4.53;100.00
70250;BME280;57644;48.416;-123.374;2023-03-04T05:33:50;100418.87;;;-4.39;100.00
70250;BME280;57644;48.416;-123.374;2023-03-04T05:36:21;100422.64;;;-4.08;100.00
70250;BME280;57644;48.416;-123.374;2023-03-04T05:38:51;100432.44;;;-4.34;100.00
70250;BME280;57644;48.416;-123.374;2023-03-04T05:41:22;100424.04;;;-4.29;100.00
70250;BME280;57644;48.416;-123.374;2023-03-04T05:43:53;100420.69;;;-4.09;100.00
70250;BME280;57644;48.416;-123.374;2023-03-04T05:46:23;100422.87;;;-4.35;100.00
70250;BME280;57644;48.416;-123.374;2023-03-04T05:48:54;100415.21;;;-4.52;100.00
70250;BME280;57644;48.416;-123.374;2023-03-04T05:51:24;100419.06;;;-4.07;100.00
70250;BME280;57644;48.416;-123.374;2023-03-04T05:53:55;100419.95;;;-4.01;100.00
70250;BME280;57644;48.416;-123.374;2023-03-04T05:56:26;100419.01;;;-4.24;100.00
70250;BME280;57644;48.416;-123.374;2023-03-04T05:58:57;100416.72;;;-4.23;100.00
70250;BME280;57644;48.416;-123.374;2023-03-04T06:01:27;100410.31;;;-4.40;100.00
70250;BME280;57644;48.416;-123.374;2023-03-04T06:03:58;100409.46;;;-4.18;100.00
70250;BME280;57644;48.416;-123.374;2023-03-04T06:06:29;100405.97;;;-4.30;100.00
70250;BME280;57644;48.416;-123.374;2023-03-04T06:08:59;100401.70;;;-4.31;100.00
70250;BME280;57644;48.416;-123.374;2023-03-04T06:11:30;100394.96;;;-4.26;100.00
70250;BME280;57644;48.416;-123.374;2023-03-04T06:14:00;100393.69;;;-4.12;100.00
70250;BME280;57644;48.416;-123.374;2023-03-04T06:16:30;100399.71;;;-4.05;100.00
70250;BME280;57644;48.416;-123.374;2023-03-04T06:19:01;100398.74;;;-4.05;100.00
70250;BME280;57644;48.416;-123.374;2023-03-04T06:21:32;100395.25;;;-4.09;100.00
70250;BME280;57644;48.416;-123.374;2023-03-04T06:24:02;100383.95;;;-4.19;100.00
70250;BME280;57644;48.416;-123.374;2023-03-04T06:26:33;100383.78;;;-4.01;100.00
70250;BME280;57644;48.416;-123.374;2023-03-04T06:29:05;100383.27;;;-4.22;100.00
70250;BME280;57644;48.416;-123.374;2023-03-04T06:31:34;100378.80;;;-4.40;100.00
70250;BME280;57644;48.416;-123.374;2023-03-04T06:34:05;100380.71;;;-4.19;100.00
70250;BME280;57644;48.416;-123.374;2023-03-04T06:36:36;100377.54;;;-4.20;100.00
70250;BME280;57644;48.416;-123.374;2023-03-04T06:39:06;100376.28;;;-4.55;100.00
70250;BME280;57644;48.416;-123.374;2023-03-04T06:41:37;100369.60;;;-4.09;100.00
70250;BME280;57644;48.416;-123.374;2023-03-04T06:44:07;100373.60;;;-4.76;100.00
70250;BME280;57644;48.416;-123.374;2023-03-04T06:46:38;100363.97;;;-4.64;100.00
70250;BME280;57644;48.416;-123.374;2023-03-04T06:49:08;100364.03;;;-4.70;100.00
70250;BME280;57644;48.416;-123.374;2023-03-04T06:51:39;100367.33;;;-4.31;100.00
70250;BME280;57644;48.416;-123.374;2023-03-04T06:54:10;100359.11;;;-4.55;100.00
70250;BME280;57644;48.416;-123.374;2023-03-04T06:56:40;100356.48;;;-4.68;100.00
70250;BME280;57644;48.416;-123.374;2023-03-04T06:59:11;100356.96;;;-4.36;100.00
70250;BME280;57644;48.416;-123.374;2023-03-04T07:01:42;100355.34;;;-4.98;100.00
70250;BME280;57644;48.416;-123.374;2023-03-04T07:04:13;100350.25;;;-4.78;100.00
70250;BME280;57644;48.416;-123.374;2023-03-04T07:06:43;100346.49;;;-4.68;100.00
70250;BME280;57644;48.416;-123.374;2023-03-04T07:09:13;100346.35;;;-4.87;100.00
70250;BME280;57644;48.416;-123.374;2023-03-04T07:11:44;100333.12;;;-4.88;100.00
70250;BME280;57644;48.416;-123.374;2023-03-04T07:14:15;100330.37;;;-4.61;100.00
70250;BME280;57644;48.416;-123.374;2023-03-04T07:16:45;100334.94;;;-4.83;100.00
70250;BME280;57644;48.416;-123.374;2023-03-04T07:19:16;100329.25;;;-4.76;100.00
70250;BME280;57644;48.416;-123.374;2023-03-04T07:21:47;100325.67;;;-4.89;100.00
70250;BME280;57644;48.416;-123.374;2023-03-04T07:24:17;100324.30;;;-5.01;100.00
70250;BME280;57644;48.416;-123.374;2023-03-04T07:26:48;100317.86;;;-4.85;100.00
70250;BME280;57644;48.416;-123.374;2023-03-04T07:29:18;100310.77;;;-4.69;100.00
70250;BME280;57644;48.416;-123.374;2023-03-04T07:31:49;100310.03;;;-4.65;100.00
70250;BME280;57644;48.416;-123.374;2023-03-04T07:34:19;100312.28;;;-4.46;100.00
70250;BME280;57644;48.416;-123.374;2023-03-04T07:36:50;100311.33;;;-4.86;100.00
70250;BME280;57644;48.416;-123.374;2023-03-04T07:39:21;100310.41;;;-4.96;100.00
70250;BME280;57644;48.416;-123.374;2023-03-04T07:41:51;100309.39;;;-4.74;100.00
70250;BME280;57644;48.416;-123.374;2023-03-04T07:44:22;100310.79;;;-4.65;100.00
70250;BME280;57644;48.416;-123.374;2023-03-04T07:46:52;100309.20;;;-4.69;100.00
70250;BME280;57644;48.416;-123.374;2023-03-04T07:49:23;100311.04;;;-4.83;100.00
70250;BME280;57644;48.416;-123.374;2023-03-04T07:51:54;100314.36;;;-5.32;100.00
70250;BME280;57644;48.416;-123.374;2023-03-04T07:54:24;100309.83;;;-5.24;100.00
70250;BME280;57644;48.416;-123.374;2023-03-04T07:56:55;100305.62;;;-5.15;100.00
70250;BME280;57644;48.416;-123.374;2023-03-04T07:59:25;100303.52;;;-5.47;100.00
70250;BME280;57644;48.416;-123.374;2023-03-04T08:01:56;100300.41;;;-5.78;100.00
70250;BME280;57644;48.416;-123.374;2023-03-04T08:04:27;100297.84;;;-5.19;100.00
70250;BME280;57644;48.416;-123.374;2023-03-04T08:06:57;100298.71;;;-5.61;100.00
70250;BME280;57644;48.416;-123.374;2023-03-04T08:09:28;100296.66;;;-5.24;100.00
70250;BME280;57644;48.416;-123.374;2023-03-04T08:11:59;100287.54;;;-5.20;100.00
70250;BME280;57644;48.416;-123.374;2023-03-04T08:14:29;100297.42;;;-5.41;100.00
70250;BME280;57644;48.416;-123.374;2023-03-04T08:17:00;100287.17;;;-5.18;100.00
70250;BME280;57644;48.416;-123.374;2023-03-04T08:19:31;100288.16;;;-5.70;100.00
70250;BME280;57644;48.416;-123.374;2023-03-04T08:22:01;100282.84;;;-5.58;100.00
70250;BME280;57644;48.416;-123.374;2023-03-04T08:24:32;100282.77;;;-5.41;100.00
70250;BME280;57644;48.416;-123.374;2023-03-04T08:27:04;100274.70;;;-5.36;100.00
70250;BME280;57644;48.416;-123.374;2023-03-04T08:29:33;100268.24;;;-5.15;100.00
70250;BME280;57644;48.416;-123.374;2023-03-04T08:32:04;100267.66;;;-5.03;100.00
70250;BME280;57644;48.416;-123.374;2023-03-04T08:34:34;100271.62;;;-5.07;100.00
70250;BME280;57644;48.416;-123.374;2023-03-04T08:37:05;100264.31;;;-5.49;100.00
70250;BME280;57644;48.416;-123.374;2023-03-04T08:39:35;100256.71;;;-5.52;100.00
70250;BME280;57644;48.416;-123.374;2023-03-04T08:42:05;100255.59;;;-5.41;100.00
70250;BME280;57644;48.416;-123.374;2023-03-04T08:44:36;100258.13;;;-5.30;100.00
70250;BME280;57644;48.416;-123.374;2023-03-04T08:47:07;100254.31;;;-5.43;100.00
70250;BME280;57644;48.416;-123.374;2023-03-04T08:49:37;100252.12;;;-5.55;100.00
70250;BME280;57644;48.416;-123.374;2023-03-04T08:52:08;100256.35;;;-5.76;100.00
70250;BME280;57644;48.416;-123.374;2023-03-04T08:54:39;100244.26;;;-6.16;100.00
70250;BME280;57644;48.416;-123.374;2023-03-04T08:57:09;100241.52;;;-5.92;100.00
70250;BME280;57644;48.416;-123.374;2023-03-04T08:59:40;100238.31;;;-5.72;100.00
70250;BME280;57644;48.416;-123.374;2023-03-04T09:02:11;100234.14;;;-6.04;100.00
70250;BME280;57644;48.416;-123.374;2023-03-04T09:04:41;100229.73;;;-5.69;100.00
70250;BME280;57644;48.416;-123.374;2023-03-04T09:07:12;100236.52;;;-5.83;100.00
70250;BME280;57644;48.416;-123.374;2023-03-04T09:09:43;100230.40;;;-6.01;100.00
70250;BME280;57644;48.416;-123.374;2023-03-04T09:12:13;100222.01;;;-6.12;100.00
70250;BME280;57644;48.416;-123.374;2023-03-04T09:14:44;100218.58;;;-6.13;100.00
70250;BME280;57644;48.416;-123.374;2023-03-04T09:17:14;100221.57;;;-6.43;100.00
70250;BME280;57644;48.416;-123.374;2023-03-04T09:19:45;100212.81;;;-6.45;100.00
70250;BME280;57644;48.416;-123.374;2023-03-04T09:22:16;100204.85;;;-6.16;100.00
70250;BME280;57644;48.416;-123.374;2023-03-04T09:24:46;100198.30;;;-6.34;100.00
70250;BME280;57644;48.416;-123.374;2023-03-04T09:27:17;100194.32;;;-6.19;100.00
70250;BME280;57644;48.416;-123.374;2023-03-04T09:29:48;100190.28;;;-6.20;100.00
70250;BME280;57644;48.416;-123.374;2023-03-04T09:32:18;100195.66;;;-5.99;100.00
70250;BME280;57644;48.416;-123.374;2023-03-04T09:34:48;100205.89;;;-5.95;100.00
70250;BME280;57644;48.416;-123.374;2023-03-04T09:37:19;100189.04;;;-6.07;100.00
70250;BME280;57644;48.416;-123.374;2023-03-04T09:39:50;100184.38;;;-6.17;100.00
70250;BME280;57644;48.416;-123.374;2023-03-04T09:42:24;100181.47;;;-6.41;100.00
70250;BME280;57644;48.416;-123.374;2023-03-04T09:44:51;100179.07;;;-6.35;100.00
70250;BME280;57644;48.416;-123.374;2023-03-04T09:47:22;100175.20;;;-6.21;100.00
70250;BME280;57644;48.416;-123.374;2023-03-04T09:49:55;100170.00;;;-6.32;100.00
70250;BME280;57644;48.416;-123.374;2023-03-04T09:52:35;100160.34;;;-5.95;100.00
70250;BME280;57644;48.416;-123.374;2023-03-04T09:55:01;100162.11;;;-5.86;100.00
70250;BME280;57644;48.416;-123.374;2023-03-04T09:57:29;100159.16;;;-5.86;100.00
70250;BME280;57644;48.416;-123.374;2023-03-04T10:00:03;100161.71;;;-5.96;100.00
70250;BME280;57644;48.416;-123.374;2023-03-04T10:02:33;100155.62;;;-5.72;100.00
70250;BME280;57644;48.416;-123.374;2023-03-04T10:04:59;100149.29;;;-6.37;100.00
70250;BME280;57644;48.416;-123.374;2023-03-04T10:07:32;100137.06;;;-6.06;100.00
70250;BME280;57644;48.416;-123.374;2023-03-04T10:10:00;100140.22;;;-5.73;100.00
70250;BME280;57644;48.416;-123.374;2023-03-04T10:12:31;100134.49;;;-5.97;100.00
70250;BME280;57644;48.416;-123.374;2023-03-04T10:15:00;100123.84;;;-5.73;100.00
70250;BME280;57644;48.416;-123.374;2023-03-04T10:17:35;100124.81;;;-5.62;100.00
70250;BME280;57644;48.416;-123.374;2023-03-04T10:20:04;100121.98;;;-5.61;100.00
70250;BME280;57644;48.416;-123.374;2023-03-04T10:22:35;100131.33;;;-5.56;100.00
70250;BME280;57644;48.416;-123.374;2023-03-04T10:25:13;100117.37;;;-6.02;100.00
70250;BME280;57644;48.416;-123.374;2023-03-04T10:27:32;100117.02;;;-5.88;100.00
70250;BME280;57644;48.416;-123.374;2023-03-04T10:30:05;100109.53;;;-5.80;100.00
70250;BME280;57644;48.416;-123.374;2023-03-04T10:32:33;100105.40;;;-5.49;100.00
70250;BME280;57644;48.416;-123.374;2023-03-04T10:35:10;100114.06;;;-5.84;100.00
70250;BME280;57644;48.416;-123.374;2023-03-04T10:42:36;100107.34;;;-6.44;100.00
70250;BME280;57644;48.416;-123.374;2023-03-04T10:45:18;100102.16;;;-6.37;100.00
70250;BME280;57644;48.416;-123.374;2023-03-04T10:47:37;100107.44;;;-6.29;100.00
70250;BME280;57644;48.416;-123.374;2023-03-04T10:50:15;100092.54;;;-6.42;100.00
70250;BME280;57644;48.416;-123.374;2023-03-04T10:52:40;100094.97;;;-6.37;100.00
70250;BME280;57644;48.416;-123.374;2023-03-04T10:55:16;100088.82;;;-6.60;100.00
70250;BME280;57644;48.416;-123.374;2023-03-04T10:57:41;100095.59;;;-6.88;100.00
70250;BME280;57644;48.416;-123.374;2023-03-04T11:02:40;100082.76;;;-6.75;100.00
70250;BME280;57644;48.416;-123.374;2023-03-04T11:05:18;100093.05;;;-7.14;100.00
70250;BME280;57644;48.416;-123.374;2023-03-04T11:07:44;100084.10;;;-6.90;100.00
70250;BME280;57644;48.416;-123.374;2023-03-04T11:10:18;100075.16;;;-6.69;100.00
70250;BME280;57644;48.416;-123.374;2023-03-04T11:12:48;100077.42;;;-6.52;100.00
70250;BME280;57644;48.416;-123.374;2023-03-04T11:15:19;100091.50;;;-6.41;100.00
70250;BME280;57644;48.416;-123.374;2023-03-04T11:17:47;100079.92;;;-6.99;100.00
70250;BME280;57644;48.416;-123.374;2023-03-04T11:20:25;100076.01;;;-7.58;100.00
70250;BME280;57644;48.416;-123.374;2023-03-04T11:22:46;100083.66;;;-7.30;100.00
70250;BME280;57644;48.416;-123.374;2023-03-04T11:25:23;100074.65;;;-6.91;100.00
70250;BME280;57644;48.416;-123.374;2023-03-04T11:27:52;100066.37;;;-6.97;100.00
70250;BME280;57644;48.416;-123.374;2023-03-04T11:30:31;100066.99;;;-6.81;100.00
70250;BME280;57644;48.416;-123.374;2023-03-04T11:32:50;100072.87;;;-6.75;100.00
70250;BME280;57644;48.416;-123.374;2023-03-04T11:35:24;100063.11;;;-6.76;100.00
70250;BME280;57644;48.416;-123.374;2023-03-04T11:37:56;100056.28;;;-6.68;100.00
70250;BME280;57644;48.416;-123.374;2023-03-04T11:40:28;100065.62;;;-6.94;100.00
70250;BME280;57644;48.416;-123.374;2023-03-04T11:42:54;100051.82;;;-7.14;100.00
70250;BME280;57644;48.416;-123.374;2023-03-04T11:45:27;100062.65;;;-6.68;100.00
70250;BME280;57644;48.416;-123.374;2023-03-04T11:48:00;100054.49;;;-7.50;100.00
70250;BME280;57644;48.416;-123.374;2023-03-04T11:50:29;100057.85;;;-7.18;100.00
70250;BME280;57644;48.416;-123.374;2023-03-04T11:55:32;100034.55;;;-7.54;100.00
70250;BME280;57644;48.416;-123.374;2023-03-04T11:58:02;100034.42;;;-7.56;100.00
70250;BME280;57644;48.416;-123.374;2023-03-04T12:00:34;100020.66;;;-7.30;100.00
70250;BME280;57644;48.416;-123.374;2023-03-04T12:05:30;100022.22;;;-6.80;100.00
70250;BME280;57644;48.416;-123.374;2023-03-04T12:08:09;100001.18;;;-6.37;100.00
70250;BME280;57644;48.416;-123.374;2023-03-04T12:10:32;99996.81;;;-6.79;100.00
70250;BME280;57644;48.416;-123.374;2023-03-04T12:15:34;99983.46;;;-6.88;100.00
70250;BME280;57644;48.416;-123.374;2023-03-04T12:18:14;99981.48;;;-6.65;100.00
70250;BME280;57644;48.416;-123.374;2023-03-04T12:20:40;99991.41;;;-7.09;100.00
70250;BME280;57644;48.416;-123.374;2023-03-04T12:23:09;99977.64;;;-6.43;100.00
70250;BME280;57644;48.416;-123.374;2023-03-04T12:25:38;99979.03;;;-6.65;100.00
70250;BME280;57644;48.416;-123.374;2023-03-04T12:28:13;99986.96;;;-7.08;100.00
70250;BME280;57644;48.416;-123.374;2023-03-04T12:30:40;99971.01;;;-6.68;100.00
70250;BME280;57644;48.416;-123.374;2023-03-04T12:33:10;99976.20;;;-6.38;100.00
70250;BME280;57644;48.416;-123.374;2023-03-04T12:35:40;99990.96;;;-7.11;100.00
70250;BME280;57644;48.416;-123.374;2023-03-04T12:38:19;99981.33;;;-7.17;100.00
70250;BME280;57644;48.416;-123.374;2023-03-04T12:40:45;99977.41;;;-7.40;100.00